This is the latest recevied weather packets stored in our database for station/object KI4BIY. If no packets are shown the sender has not sent any weather packets the latest 10 day(s).
| Time | Temp. | Humidity | Pressure | Rain* | Wind** | Luminosity | Snow |
|---|---|---|---|---|---|---|---|
| 1778248563 | 17.78° C | 69% | 1015.6 hPa | 0 mm | - | 442 W/m² | - |
| 1778248259 | 16.67° C | 74% | 1015.9 hPa | 0 mm | - | 348 W/m² | - |
| 1778247956 | 16.67° C | 73% | 1016.3 hPa | 0 mm | - | 249 W/m² | - |
| 1778247653 | 17.22° C | 71% | 1016.4 hPa | 0 mm | - | 278 W/m² | - |
| 1778247349 | 16.67° C | 73% | 1016.3 hPa | 0 mm | - | 302 W/m² | - |
| 1778247047 | 16.67° C | 70% | 1016.4 hPa | 0 mm | - | 314 W/m² | - |
| 1778246745 | 16.67° C | 71% | 1016.2 hPa | 0 mm | - | 247 W/m² | - |
| 1778246441 | 17.22° C | 72% | 1016.3 hPa | 0 mm | - | 240 W/m² | - |
| 1778246137 | 16.67° C | 74% | 1016.1 hPa | 0 mm | - | 253 W/m² | - |
| 1778245834 | 15.56° C | 74% | 1016.6 hPa | 0 mm | - | 216 W/m² | - |
| 1778245531 | 15° C | 78% | 1016.4 hPa | 0 mm | - | 206 W/m² | - |
| 1778245227 | 15° C | 76% | 1016.3 hPa | 0 mm | - | 188 W/m² | - |
| 1778244923 | 14.44° C | 80% | 1016.2 hPa | 0 mm | - | 202 W/m² | - |
| 1778244621 | 13.33° C | 83% | 1016.4 hPa | 0 mm | - | 108 W/m² | - |
| 1778244319 | 12.22° C | 87% | 1016.4 hPa | 0 mm | - | 87 W/m² | - |
| 1778244015 | 11.67° C | 88% | 1016.2 hPa | 0 mm | - | 29 W/m² | - |
| 1778243714 | 11.11° C | 91% | 1016.3 hPa | 0 mm | - | 25 W/m² | - |
| 1778243410 | 10.56° C | 96% | 1016.2 hPa | 0 mm | - | 23 W/m² | - |
| 1778243108 | 10° C | 99% | 1016.2 hPa | 0 mm | - | 21 W/m² | - |
| 1778242804 | 10° C | 99% | 1016.3 hPa | 0 mm | - | 19 W/m² | - |
| 1778242502 | 10° C | 99% | 1016 hPa | 0 mm | - | 18 W/m² | - |
| 1778242200 | 9.44° C | 99% | 1016 hPa | 0 mm | - | 17 W/m² | - |
| 1778241897 | 9.44° C | 99% | 1016 hPa | 0 mm | - | 16 W/m² | - |
| 1778241595 | 8.89° C | 99% | 1015.9 hPa | 0 mm | - | 15 W/m² | - |
| 1778241293 | 8.89° C | 99% | 1015.8 hPa | 0 mm | - | 13 W/m² | - |
* Rain latest hour (hover to see other rain measurements)
** Current wind speed in m/s (hover to see current wind gust speed)